createdAt,value
2023-03-19T00:02:17.570Z,1.85
2023-03-19T00:04:47.707Z,1.84
2023-03-19T00:07:16.652Z,1.85
2023-03-19T00:09:48.511Z,1.84
2023-03-19T00:12:17.685Z,1.83
2023-03-19T00:14:46.971Z,1.83
2023-03-19T00:17:16.302Z,1.84
2023-03-19T00:19:45.454Z,1.84
2023-03-19T00:22:15.917Z,1.84
2023-03-19T00:24:44.858Z,1.85
2023-03-19T00:27:13.491Z,1.87
2023-03-19T00:29:43.557Z,1.87
2023-03-19T00:32:12.537Z,1.87
2023-03-19T00:34:42.107Z,1.87
2023-03-19T00:37:12.672Z,1.88
2023-03-19T00:39:54.123Z,1.90
2023-03-19T00:42:22.904Z,1.90
2023-03-19T00:44:51.540Z,1.90
2023-03-19T00:47:20.198Z,1.90
2023-03-19T00:49:48.826Z,1.90
2023-03-19T00:52:19.327Z,1.89
2023-03-19T00:54:47.737Z,1.90
2023-03-19T00:57:16.319Z,1.89
2023-03-19T00:59:45.644Z,1.88
2023-03-19T01:02:14.384Z,1.88
2023-03-19T01:04:44.454Z,1.88
2023-03-19T01:07:16.433Z,1.87
2023-03-19T01:09:45.163Z,1.86
2023-03-19T01:12:14.453Z,1.86
2023-03-19T01:14:43.153Z,1.84
2023-03-19T01:17:12.281Z,1.81
2023-03-19T01:19:41.371Z,1.80
2023-03-19T01:22:10.538Z,1.80
2023-03-19T01:24:40.601Z,1.80
2023-03-19T01:27:09.368Z,1.79
2023-03-19T01:29:38.788Z,1.80
2023-03-19T01:32:21.873Z,1.81
2023-03-19T01:35:16.958Z,1.82
2023-03-19T01:37:48.601Z,1.81
2023-03-19T01:40:17.235Z,1.81
2023-03-19T01:43:22.392Z,1.83
2023-03-19T01:46:31.105Z,1.83
2023-03-19T01:49:46.081Z,1.84
2023-03-19T01:52:22.082Z,1.83
2023-03-19T01:55:04.815Z,1.84
2023-03-19T01:57:50.160Z,1.85
2023-03-19T02:00:45.104Z,1.85
2023-03-19T02:03:15.088Z,1.84
2023-03-19T02:06:01.370Z,1.84
2023-03-19T02:08:30.630Z,1.83
2023-03-19T02:11:00.621Z,1.82
2023-03-19T02:13:29.576Z,1.81
2023-03-19T02:15:58.742Z,1.80
2023-03-19T02:18:27.909Z,1.80
2023-03-19T02:21:06.282Z,1.79
2023-03-19T02:23:48.271Z,1.77
2023-03-19T02:26:22.027Z,1.75
2023-03-19T02:28:53.017Z,1.73
2023-03-19T02:31:26.245Z,1.72
2023-03-19T02:33:59.515Z,1.70
2023-03-19T02:36:33.170Z,1.69
2023-03-19T02:39:02.636Z,1.68
2023-03-19T02:41:32.251Z,1.69
2023-03-19T02:44:02.209Z,1.69
2023-03-19T02:46:31.218Z,1.70
2023-03-19T02:49:00.113Z,1.71
2023-03-19T02:51:28.991Z,1.71
2023-03-19T02:53:57.645Z,1.70
2023-03-19T02:56:27.545Z,1.69
2023-03-19T02:58:56.331Z,1.68
2023-03-19T03:01:24.911Z,1.67
2023-03-19T03:03:53.886Z,1.67
2023-03-19T03:06:26.736Z,1.67
2023-03-19T03:08:56.709Z,1.67
2023-03-19T03:11:26.479Z,1.66
2023-03-19T03:13:56.635Z,1.65
2023-03-19T03:16:25.772Z,1.64
2023-03-19T03:18:54.549Z,1.63
2023-03-19T03:21:25.819Z,1.61
2023-03-19T03:23:54.692Z,1.60
2023-03-19T03:26:23.345Z,1.59
2023-03-19T03:28:52.424Z,1.60
2023-03-19T03:31:21.579Z,1.60
2023-03-19T03:33:53.056Z,1.59
2023-03-19T03:36:21.744Z,1.59
2023-03-19T03:38:51.361Z,1.59
2023-03-19T03:41:20.518Z,1.59
2023-03-19T03:43:50.061Z,1.57
2023-03-19T03:46:18.746Z,1.56
2023-03-19T03:48:50.081Z,1.56
2023-03-19T03:51:19.220Z,1.57
2023-03-19T03:53:48.124Z,1.57
2023-03-19T03:56:17.074Z,1.57
2023-03-19T03:58:46.261Z,1.55
2023-03-19T04:01:17.672Z,1.57
2023-03-19T04:03:47.539Z,1.58
2023-03-19T04:06:17.758Z,1.58
2023-03-19T04:08:47.438Z,1.57
2023-03-19T04:11:16.515Z,1.56
2023-03-19T04:13:47.033Z,1.57
2023-03-19T04:16:15.850Z,1.57
2023-03-19T04:18:44.909Z,1.57
2023-03-19T04:21:14.965Z,1.57
2023-03-19T04:23:43.754Z,1.57
2023-03-19T04:26:12.403Z,1.57
2023-03-19T04:28:43.052Z,1.58
2023-03-19T04:31:12.701Z,1.59
2023-03-19T04:33:45.898Z,1.59
2023-03-19T04:36:14.469Z,1.59
2023-03-19T04:38:44.670Z,1.60
2023-03-19T04:41:17.748Z,1.59
2023-03-19T04:43:57.942Z,1.59
2023-03-19T04:46:27.024Z,1.60
2023-03-19T04:48:57.186Z,1.62
2023-03-19T04:51:26.633Z,1.64
2023-03-19T04:53:57.697Z,1.67
2023-03-19T04:56:27.988Z,1.68
2023-03-19T04:58:57.641Z,1.69
2023-03-19T05:01:26.336Z,1.70
2023-03-19T05:04:13.424Z,1.70
2023-03-19T05:06:43.388Z,1.69
2023-03-19T05:09:11.990Z,1.69
2023-03-19T05:11:41.241Z,1.68
2023-03-19T05:14:14.632Z,1.68
2023-03-19T05:17:16.859Z,1.70
2023-03-19T05:20:12.882Z,1.70
2023-03-19T05:22:47.215Z,1.73
2023-03-19T05:25:16.396Z,1.78
2023-03-19T05:27:48.470Z,1.81
2023-03-19T05:30:23.836Z,1.82
2023-03-19T05:33:13.711Z,1.85
2023-03-19T05:35:46.055Z,1.88
2023-03-19T05:38:29.174Z,1.88
2023-03-19T05:41:05.264Z,1.88
2023-03-19T05:43:41.945Z,1.90
2023-03-19T05:46:14.997Z,1.91
2023-03-19T05:48:44.262Z,1.93
2023-03-19T05:51:16.156Z,1.99
2023-03-19T05:53:47.310Z,2.03
2023-03-19T05:56:54.525Z,2.05
2023-03-19T05:59:42.890Z,2.06
2023-03-19T06:02:31.304Z,2.08
2023-03-19T06:05:30.048Z,2.10
2023-03-19T06:08:03.450Z,2.14
2023-03-19T06:10:40.000Z,2.18
2023-03-19T06:13:11.829Z,2.18
2023-03-19T06:16:07.257Z,2.17
2023-03-19T06:18:43.724Z,2.14
2023-03-19T06:21:13.576Z,2.12
2023-03-19T06:23:43.474Z,2.12
2023-03-19T06:26:17.703Z,2.17
2023-03-19T06:28:50.967Z,2.21
2023-03-19T06:31:20.263Z,2.24
2023-03-19T06:33:57.629Z,2.26
2023-03-19T06:36:31.444Z,2.27
2023-03-19T06:39:06.427Z,2.25
2023-03-19T06:41:35.071Z,2.26
2023-03-19T06:44:12.553Z,2.28
2023-03-19T06:46:42.932Z,2.31
2023-03-19T06:49:15.767Z,2.36
2023-03-19T06:51:44.999Z,2.41
2023-03-19T06:54:14.464Z,2.46
2023-03-19T06:56:43.293Z,2.48
2023-03-19T06:59:16.244Z,2.46
2023-03-19T07:01:47.054Z,2.45
2023-03-19T07:04:16.137Z,2.43
2023-03-19T07:06:53.716Z,2.44
2023-03-19T07:09:23.689Z,2.44
2023-03-19T07:11:52.285Z,2.38
2023-03-19T07:14:22.482Z,2.36
2023-03-19T07:16:51.874Z,2.40
2023-03-19T07:19:26.333Z,2.44
2023-03-19T07:21:54.881Z,2.51
2023-03-19T07:24:24.142Z,2.60
2023-03-19T07:26:54.716Z,2.68
2023-03-19T07:29:23.197Z,2.73
2023-03-19T07:31:51.997Z,2.76
2023-03-19T07:34:23.599Z,2.78
2023-03-19T07:36:53.513Z,2.73
2023-03-19T07:39:22.514Z,2.70
2023-03-19T07:41:54.340Z,2.76
2023-03-19T07:44:25.968Z,2.79
2023-03-19T07:46:58.309Z,2.83
2023-03-19T07:49:26.977Z,2.86
2023-03-19T07:51:56.551Z,2.92
2023-03-19T07:54:44.333Z,3.00
2023-03-19T07:57:26.467Z,3.09
2023-03-19T07:59:59.092Z,3.18
2023-03-19T08:02:28.041Z,3.27
2023-03-19T08:04:56.951Z,3.25
2023-03-19T08:07:26.256Z,3.18
2023-03-19T08:09:55.179Z,3.13
2023-03-19T08:12:42.086Z,3.15
2023-03-19T08:15:17.427Z,3.19
2023-03-19T08:17:47.141Z,3.25
2023-03-19T08:20:16.989Z,3.28
2023-03-19T08:22:49.626Z,3.22
2023-03-19T08:25:18.395Z,3.16
2023-03-19T08:27:46.878Z,3.09
2023-03-19T08:30:15.905Z,3.08
2023-03-19T08:32:47.538Z,3.07
2023-03-19T08:35:21.509Z,3.04
2023-03-19T08:37:50.237Z,3.07
2023-03-19T08:40:19.532Z,3.15
2023-03-19T08:42:49.458Z,3.20
2023-03-19T08:45:19.433Z,3.27
2023-03-19T08:47:49.836Z,3.31
2023-03-19T08:50:22.418Z,3.32
2023-03-19T08:52:51.749Z,3.34
2023-03-19T08:55:21.216Z,3.33
2023-03-19T08:57:54.114Z,3.32
2023-03-19T09:00:24.019Z,3.31
2023-03-19T09:02:54.699Z,3.28
2023-03-19T09:05:28.139Z,3.27
2023-03-19T09:08:19.097Z,3.35
2023-03-19T09:10:51.554Z,3.42
2023-03-19T09:13:25.102Z,3.45
2023-03-19T09:15:54.966Z,3.48
2023-03-19T09:18:30.866Z,3.53
2023-03-19T09:21:01.396Z,3.55
2023-03-19T09:23:31.221Z,3.58
2023-03-19T09:26:01.589Z,3.62
2023-03-19T09:28:31.537Z,3.67
2023-03-19T09:31:07.523Z,3.72
2023-03-19T09:33:38.320Z,3.73
2023-03-19T09:36:08.073Z,3.73
2023-03-19T09:38:40.057Z,3.77
2023-03-19T09:41:34.524Z,3.75
2023-03-19T09:44:07.189Z,3.71
2023-03-19T09:46:50.611Z,3.66
2023-03-19T09:49:32.964Z,3.67
2023-03-19T09:52:23.005Z,3.72
2023-03-19T09:54:53.442Z,3.76
2023-03-19T09:57:23.699Z,3.79
2023-03-19T09:59:55.099Z,3.79
2023-03-19T10:02:39.477Z,3.77
2023-03-19T10:05:22.273Z,3.78
2023-03-19T10:07:56.916Z,3.83
2023-03-19T10:10:37.440Z,3.83
2023-03-19T10:13:24.445Z,3.87
2023-03-19T10:15:56.248Z,3.95
2023-03-19T10:18:36.272Z,4.00
2023-03-19T10:21:22.484Z,3.99
2023-03-19T10:24:16.578Z,4.02
2023-03-19T10:26:47.986Z,4.10
2023-03-19T10:29:22.473Z,4.19
2023-03-19T10:32:21.308Z,4.26
2023-03-19T10:34:54.522Z,4.34
2023-03-19T10:37:27.961Z,4.39
2023-03-19T10:40:02.693Z,4.39
2023-03-19T10:42:57.322Z,4.38
2023-03-19T10:45:39.605Z,4.34
2023-03-19T10:48:13.153Z,4.33
2023-03-19T10:50:46.427Z,4.26
2023-03-19T10:53:16.121Z,4.22
2023-03-19T10:55:53.990Z,4.25
2023-03-19T10:58:28.374Z,4.33
2023-03-19T11:01:05.522Z,4.34
2023-03-19T11:03:52.419Z,4.34
2023-03-19T11:06:42.468Z,4.40
2023-03-19T11:09:20.116Z,4.45
2023-03-19T11:11:54.686Z,4.56
2023-03-19T11:14:26.465Z,4.64
2023-03-19T11:16:58.678Z,4.68
2023-03-19T11:19:42.782Z,4.71
2023-03-19T11:22:27.685Z,4.79
2023-03-19T11:25:02.991Z,4.77
2023-03-19T11:27:36.772Z,4.74
2023-03-19T11:30:18.885Z,4.77
2023-03-19T11:33:08.023Z,4.80
2023-03-19T11:35:56.368Z,4.75
2023-03-19T11:38:52.093Z,4.71
2023-03-19T11:41:33.809Z,4.70
2023-03-19T11:44:11.445Z,4.71
2023-03-19T11:47:03.329Z,4.71
2023-03-19T11:49:40.985Z,4.71
2023-03-19T11:53:03.653Z,4.73
2023-03-19T11:55:58.004Z,4.78
2023-03-19T11:58:54.944Z,4.79
2023-03-19T12:01:43.241Z,4.77
2023-03-19T12:05:08.585Z,4.76
2023-03-19T12:07:42.222Z,4.75
2023-03-19T12:10:40.603Z,4.72
2023-03-19T12:13:38.755Z,4.70
2023-03-19T12:16:45.772Z,4.68
2023-03-19T12:19:55.417Z,4.71
2023-03-19T12:23:23.965Z,4.78
2023-03-19T12:26:05.251Z,4.81
2023-03-19T12:28:40.177Z,4.81
2023-03-19T12:31:30.321Z,4.84
2023-03-19T12:34:42.259Z,4.88
2023-03-19T12:37:29.819Z,4.87
2023-03-19T12:40:08.407Z,4.85
2023-03-19T12:42:43.450Z,4.86
2023-03-19T12:45:27.520Z,4.88
2023-03-19T12:48:07.905Z,4.85
2023-03-19T12:50:40.141Z,4.83
2023-03-19T12:53:16.670Z,4.84
2023-03-19T12:55:54.152Z,4.84
2023-03-19T12:58:39.943Z,4.84
2023-03-19T13:01:28.544Z,4.87
2023-03-19T13:04:04.991Z,4.92
2023-03-19T13:06:40.485Z,4.91
2023-03-19T13:09:19.507Z,4.86
2023-03-19T13:11:55.646Z,4.87
2023-03-19T13:14:53.752Z,4.91
2023-03-19T13:17:29.875Z,4.90
2023-03-19T13:20:06.070Z,4.88
2023-03-19T13:22:37.002Z,4.86
2023-03-19T13:25:07.414Z,4.87
2023-03-19T13:27:38.565Z,4.87
2023-03-19T13:30:11.992Z,4.85
2023-03-19T13:32:50.780Z,4.83
2023-03-19T13:35:49.285Z,4.86
2023-03-19T13:38:47.657Z,4.84
2023-03-19T13:41:33.647Z,4.78
2023-03-19T13:44:35.545Z,4.73
2023-03-19T13:47:29.590Z,4.75
2023-03-19T13:50:16.880Z,4.77
2023-03-19T13:52:49.799Z,4.77
2023-03-19T13:55:27.503Z,4.77
2023-03-19T13:58:39.064Z,4.75
2023-03-19T14:01:12.588Z,4.72
2023-03-19T14:04:13.214Z,4.73
2023-03-19T14:06:52.605Z,4.75
2023-03-19T14:09:38.995Z,4.76
2023-03-19T14:12:13.715Z,4.75
2023-03-19T14:14:46.912Z,4.76
2023-03-19T14:17:21.742Z,4.78
2023-03-19T14:19:53.130Z,4.79
2023-03-19T14:22:38.575Z,4.80
2023-03-19T14:25:23.613Z,4.77
2023-03-19T14:28:38.412Z,4.73
2023-03-19T14:31:25.498Z,4.72
2023-03-19T14:34:17.868Z,4.74
2023-03-19T14:37:13.134Z,4.76
2023-03-19T14:39:47.880Z,4.79
2023-03-19T14:42:40.433Z,4.82
2023-03-19T14:45:29.827Z,4.85
2023-03-19T14:48:27.461Z,4.86
2023-03-19T14:51:19.594Z,4.87
2023-03-19T14:53:54.898Z,4.88
2023-03-19T14:56:39.152Z,4.89
2023-03-19T14:59:10.328Z,4.91
2023-03-19T15:01:45.605Z,4.91
2023-03-19T15:04:17.343Z,4.88
2023-03-19T15:06:58.337Z,4.85
2023-03-19T15:09:43.576Z,4.84
2023-03-19T15:12:15.170Z,4.85
2023-03-19T15:15:01.664Z,4.84
2023-03-19T15:17:39.038Z,4.84
2023-03-19T15:20:37.269Z,4.83
2023-03-19T15:23:26.236Z,4.82
2023-03-19T15:26:03.774Z,4.81
2023-03-19T15:28:53.705Z,4.80
2023-03-19T15:31:50.864Z,4.81
2023-03-19T15:34:30.610Z,4.83
2023-03-19T15:37:05.596Z,4.83
2023-03-19T15:39:42.305Z,4.84
2023-03-19T15:42:15.755Z,4.85
2023-03-19T15:45:04.889Z,4.84
2023-03-19T15:47:39.117Z,4.84
2023-03-19T15:50:15.755Z,4.82
2023-03-19T15:52:53.938Z,4.80
2023-03-19T15:55:27.116Z,4.78
2023-03-19T15:58:05.428Z,4.76
2023-03-19T16:00:43.903Z,4.75
2023-03-19T16:03:39.689Z,4.73
2023-03-19T16:06:29.592Z,4.71
2023-03-19T16:09:38.562Z,4.71
2023-03-19T16:12:43.902Z,4.69
2023-03-19T16:15:46.601Z,4.68
2023-03-19T16:18:28.201Z,4.66
2023-03-19T16:21:02.011Z,4.62
2023-03-19T16:24:14.742Z,4.63
2023-03-19T16:26:49.055Z,4.63
2023-03-19T16:29:27.886Z,4.60
2023-03-19T16:32:04.944Z,4.58
2023-03-19T16:34:34.914Z,4.58
2023-03-19T16:37:38.986Z,4.58
2023-03-19T16:40:12.181Z,4.58
2023-03-19T16:42:42.544Z,4.57
2023-03-19T16:45:18.452Z,4.56
2023-03-19T16:47:51.657Z,4.55
2023-03-19T16:50:33.886Z,4.54
2023-03-19T16:53:03.797Z,4.55
2023-03-19T16:55:39.393Z,4.54
2023-03-19T16:58:11.204Z,4.54
2023-03-19T17:00:40.446Z,4.53
2023-03-19T17:03:17.121Z,4.52
2023-03-19T17:05:46.588Z,4.51
2023-03-19T17:08:17.318Z,4.51
2023-03-19T17:10:49.541Z,4.50
2023-03-19T17:13:22.940Z,4.50
2023-03-19T17:15:53.110Z,4.48
2023-03-19T17:18:24.363Z,4.47
2023-03-19T17:21:29.692Z,4.46
2023-03-19T17:23:58.957Z,4.45
2023-03-19T17:26:28.674Z,4.43
2023-03-19T17:28:58.194Z,4.42
2023-03-19T17:31:32.036Z,4.40
2023-03-19T17:34:10.732Z,4.39
2023-03-19T17:36:40.059Z,4.38
2023-03-19T17:39:10.500Z,4.37
2023-03-19T17:41:44.997Z,4.35
2023-03-19T17:44:14.993Z,4.35
2023-03-19T17:46:50.461Z,4.34
2023-03-19T17:49:19.966Z,4.33
2023-03-19T17:51:49.239Z,4.33
2023-03-19T17:54:20.125Z,4.31
2023-03-19T17:56:49.373Z,4.31
2023-03-19T17:59:19.416Z,4.30
2023-03-19T18:01:48.291Z,4.29
2023-03-19T18:04:19.253Z,4.30
2023-03-19T18:06:54.694Z,4.28
2023-03-19T18:09:28.504Z,4.26
2023-03-19T18:11:57.573Z,4.23
2023-03-19T18:14:26.698Z,4.22
2023-03-19T18:16:55.481Z,4.24
2023-03-19T18:19:32.005Z,4.25
2023-03-19T18:22:00.696Z,4.24
2023-03-19T18:24:29.602Z,4.23
2023-03-19T18:26:58.145Z,4.21
2023-03-19T18:29:35.391Z,4.22
2023-03-19T18:32:12.409Z,4.22
2023-03-19T18:34:41.286Z,4.21
2023-03-19T18:37:14.820Z,4.20
2023-03-19T18:39:44.615Z,4.19
2023-03-19T18:42:16.819Z,4.18
2023-03-19T18:44:45.993Z,4.17
2023-03-19T18:47:17.600Z,4.15
2023-03-19T18:49:47.943Z,4.14
2023-03-19T18:52:19.499Z,4.13
2023-03-19T18:54:48.738Z,4.13
2023-03-19T18:57:17.767Z,4.12
2023-03-19T18:59:47.071Z,4.11
2023-03-19T19:02:29.490Z,4.09
2023-03-19T19:04:58.608Z,4.07
2023-03-19T19:07:27.465Z,4.04
2023-03-19T19:09:57.661Z,4.03
2023-03-19T19:12:27.383Z,4.02
2023-03-19T19:14:55.935Z,3.99
2023-03-19T19:17:25.621Z,3.96
2023-03-19T19:19:54.676Z,3.94
2023-03-19T19:22:23.200Z,3.93
2023-03-19T19:24:52.153Z,3.94
2023-03-19T19:27:23.062Z,3.95
2023-03-19T19:29:52.348Z,3.96
2023-03-19T19:32:29.607Z,3.95
2023-03-19T19:34:58.221Z,3.91
2023-03-19T19:37:30.284Z,3.91
2023-03-19T19:39:59.114Z,3.91
2023-03-19T19:42:28.061Z,3.89
2023-03-19T19:44:59.165Z,3.87
2023-03-19T19:47:28.119Z,3.85
2023-03-19T19:49:58.965Z,3.83
2023-03-19T19:52:29.342Z,3.80
2023-03-19T19:54:59.614Z,3.79
2023-03-19T19:57:28.611Z,3.78
2023-03-19T19:59:57.437Z,3.77
2023-03-19T20:02:28.969Z,3.75
2023-03-19T20:04:58.125Z,3.72
2023-03-19T20:07:27.326Z,3.67
2023-03-19T20:09:56.651Z,3.65
2023-03-19T20:12:28.497Z,3.64
2023-03-19T20:14:57.173Z,3.62
2023-03-19T20:17:25.771Z,3.59
2023-03-19T20:19:54.687Z,3.58
2023-03-19T20:22:23.964Z,3.56
2023-03-19T20:24:52.531Z,3.56
2023-03-19T20:27:26.722Z,3.54
2023-03-19T20:29:56.554Z,3.52
2023-03-19T20:32:25.759Z,3.52
2023-03-19T20:35:00.240Z,3.51
2023-03-19T20:37:30.790Z,3.51
2023-03-19T20:39:59.457Z,3.51
2023-03-19T20:42:28.871Z,3.52
2023-03-19T20:44:58.010Z,3.52
2023-03-19T20:47:27.314Z,3.52
2023-03-19T20:49:55.786Z,3.53
2023-03-19T20:52:26.121Z,3.52
2023-03-19T20:54:54.966Z,3.52
2023-03-19T20:57:29.335Z,3.51
2023-03-19T21:00:01.324Z,3.51
2023-03-19T21:02:31.103Z,3.52
2023-03-19T21:05:07.865Z,3.52
2023-03-19T21:07:36.835Z,3.50
2023-03-19T21:10:26.601Z,3.48
2023-03-19T21:12:57.155Z,3.48
2023-03-19T21:15:34.626Z,3.47
2023-03-19T21:18:03.491Z,3.46
2023-03-19T21:20:34.592Z,3.46
2023-03-19T21:23:13.801Z,3.46
2023-03-19T21:25:46.229Z,3.46
2023-03-19T21:28:19.648Z,3.45
2023-03-19T21:30:48.922Z,3.43
2023-03-19T21:33:31.884Z,3.41
2023-03-19T21:36:01.836Z,3.41
2023-03-19T21:38:33.176Z,3.41
2023-03-19T21:41:07.407Z,3.41
2023-03-19T21:43:42.217Z,3.40
2023-03-19T21:46:24.049Z,3.37
2023-03-19T21:48:54.642Z,3.36
2023-03-19T21:51:25.270Z,3.35
2023-03-19T21:53:54.565Z,3.33
2023-03-19T21:56:35.641Z,3.31
2023-03-19T21:59:08.540Z,3.29
2023-03-19T22:01:37.019Z,3.26
2023-03-19T22:04:05.598Z,3.25
2023-03-19T22:06:34.283Z,3.21
2023-03-19T22:09:04.350Z,3.17
2023-03-19T22:11:35.117Z,3.15
2023-03-19T22:14:07.695Z,3.12
2023-03-19T22:16:42.742Z,3.08
2023-03-19T22:19:15.362Z,3.06
2023-03-19T22:21:44.072Z,3.05
2023-03-19T22:24:12.827Z,3.03
2023-03-19T22:26:43.265Z,3.03
2023-03-19T22:29:20.128Z,3.01
2023-03-19T22:31:50.586Z,2.99
2023-03-19T22:34:22.393Z,2.99
2023-03-19T22:36:51.623Z,2.98
2023-03-19T22:39:20.287Z,2.98
2023-03-19T22:41:49.040Z,2.97
2023-03-19T22:44:24.617Z,2.97
2023-03-19T22:46:53.693Z,2.96
2023-03-19T22:49:22.424Z,2.95
2023-03-19T22:51:51.501Z,2.95
2023-03-19T22:54:22.141Z,2.95
2023-03-19T22:56:51.019Z,2.96
2023-03-19T22:59:23.276Z,2.95
2023-03-19T23:01:52.639Z,2.95
2023-03-19T23:04:31.868Z,2.96
2023-03-19T23:07:00.992Z,2.98
2023-03-19T23:09:31.940Z,2.96
2023-03-19T23:12:01.239Z,2.96
2023-03-19T23:14:31.506Z,2.97
2023-03-19T23:17:03.848Z,2.98
2023-03-19T23:19:37.214Z,2.99
2023-03-19T23:22:07.666Z,2.99
2023-03-19T23:24:36.402Z,3.00
2023-03-19T23:27:20.359Z,3.01
2023-03-19T23:29:49.659Z,2.99
2023-03-19T23:32:20.107Z,3.00
2023-03-19T23:34:59.442Z,3.00
2023-03-19T23:37:29.455Z,3.01
2023-03-19T23:40:01.892Z,3.00
2023-03-19T23:42:32.081Z,2.96
2023-03-19T23:45:04.915Z,2.90
2023-03-19T23:47:34.349Z,2.86
2023-03-19T23:50:03.206Z,2.84
2023-03-19T23:52:33.505Z,2.84
2023-03-19T23:55:02.224Z,2.85
2023-03-19T23:57:31.029Z,2.87
2023-03-19T23:59:59.670Z,2.86
